Joslin Field Magic Valley Regional Airport
KTWF : now visible

Airfield :











YOU CAN JOIN US ON...

 
LOGIN :

Register | Disclaimer

   EN    FR    IT 

 









Legend :    VFR   Marginal VFR   IFR   Intensive IFR   Very Intensive IFR
Visi :
Ceiling :
>= 8 km
>= 3000ft
5 to 8 km
1000 to 3000 ft
1500m to 5 km
500 to 1000 ft
800 to 1500m
200 to 500 ft
< 800m
< 200 ft
Symbols :   Thunderstorms  Fog  Heavy snow  Heavy precipitations  Wind > 20 kt






- Airport Elevation : 4154 ft
- IATA code : TWF


KTWF - Joslin Field Magic Valley Regional

CURRENT METAR :
  • 192053Z 33007KT 6SM HZ CLR 35/03 A3015 RMK AO2 SLP142 T03500033 58010

EXPIRED METARs :
  • 191953Z 33007KT 7SM CLR 33/10 A3016 RMK AO2 SLP147 T03280100
  • 191853Z 36007KT 7SM CLR 32/08 A3018 RMK AO2 SLP152 T03220083
  • 191753Z 34006KT 7SM CLR 31/07 A3019 RMK AO2 SLP156 T03060072 10311 20222 50002
  • 191653Z 31009KT 6SM HZ CLR 29/06 A3019 RMK AO2 SLP157 T02890061

TAF KTWF
Valid from the 19 at 18:00 until the 20 at 18:00 UTC


191727Z 1918/2018 33006KT P6SM SCT120
FM200200 20010KT P6SM SCT120
FM201600 28008KT P6SM FEW200
KZLC FIR / North America



MET'MAP, your aeronautical weather chart ! - Copyright ORBIFLY December 2007 - Disclaimer

ORBIFLY MET'MAP TEAM :

Programming & Development : Alexandra Zaïnal
Original concept : Baudouin d'Aumeries
Technical & hardware support : Manuel Goepfert
Assistance : Marc-Olivier Méhu




SOURCES & CREDITS :

   NOAA       Earth
Advisory